createdAt,value
2018-09-13T00:00:00.810Z,1.42
2018-09-13T00:00:13.219Z,1.42
2018-09-13T00:00:25.823Z,1.42
2018-09-13T00:00:38.248Z,1.42
2018-09-13T00:00:50.693Z,1.42
2018-09-13T00:01:03.112Z,1.42
2018-09-13T00:01:15.520Z,1.52
2018-09-13T00:01:27.922Z,1.52
2018-09-13T00:01:40.323Z,1.52
2018-09-13T00:01:52.772Z,1.52
2018-09-13T00:02:05.228Z,1.52
2018-09-13T00:02:17.650Z,1.52
2018-09-13T00:02:30.047Z,1.52
2018-09-13T00:02:42.492Z,1.52
2018-09-13T00:02:54.901Z,1.52
2018-09-13T00:03:07.297Z,1.52
2018-09-13T00:03:19.990Z,1.52
2018-09-13T00:03:32.406Z,1.52
2018-09-13T00:03:44.820Z,1.52
2018-09-13T00:03:57.228Z,1.52
2018-09-13T00:04:09.638Z,1.52
2018-09-13T00:04:22.052Z,1.52
2018-09-13T00:04:34.453Z,1.52
2018-09-13T00:04:46.921Z,1.52
2018-09-13T00:04:59.324Z,1.52
2018-09-13T00:05:11.741Z,1.52
2018-09-13T00:05:24.131Z,1.52
2018-09-13T00:05:36.603Z,1.52
2018-09-13T00:05:49.252Z,1.52
2018-09-13T00:06:02.468Z,1.52
2018-09-13T00:06:14.888Z,1.52
2018-09-13T00:06:27.327Z,1.52
2018-09-13T00:06:39.752Z,1.52
2018-09-13T00:06:52.181Z,1.52
2018-09-13T00:07:04.605Z,1.52
2018-09-13T00:07:17.018Z,1.52
2018-09-13T00:07:29.457Z,1.52
2018-09-13T00:07:42.114Z,1.52
2018-09-13T00:07:54.599Z,1.52
2018-09-13T00:08:07.011Z,1.52
2018-09-13T00:08:19.456Z,1.52
2018-09-13T00:08:31.851Z,1.52
2018-09-13T00:08:44.287Z,1.52
2018-09-13T00:08:56.699Z,1.52
2018-09-13T00:09:09.099Z,1.52
2018-09-13T00:09:21.572Z,1.52
2018-09-13T00:09:34.043Z,1.52
2018-09-13T00:09:46.836Z,1.52
2018-09-13T00:09:59.280Z,1.52
2018-09-13T00:10:11.689Z,1.52
2018-09-13T00:10:24.207Z,1.52
2018-09-13T00:10:36.646Z,1.52
2018-09-13T00:10:49.049Z,1.52
2018-09-13T00:11:01.471Z,1.52
2018-09-13T00:11:13.901Z,1.52
2018-09-13T00:11:26.581Z,1.33
2018-09-13T00:11:39.131Z,1.33
2018-09-13T00:11:51.566Z,1.33
2018-09-13T00:12:03.975Z,1.33
2018-09-13T00:12:16.493Z,1.33
2018-09-13T00:12:28.916Z,1.33
2018-09-13T00:12:41.455Z,1.33
2018-09-13T00:12:53.849Z,1.33
2018-09-13T00:13:06.271Z,1.33
2018-09-13T00:13:18.675Z,1.33
2018-09-13T00:13:31.097Z,1.33
2018-09-13T00:13:43.515Z,1.33
2018-09-13T00:13:55.913Z,1.33
2018-09-13T00:14:08.420Z,1.33
2018-09-13T00:14:20.846Z,1.33
2018-09-13T00:14:33.244Z,1.33
2018-09-13T00:14:45.672Z,1.33
2018-09-13T00:14:58.473Z,1.33
2018-09-13T00:15:10.920Z,1.33
2018-09-13T00:15:23.447Z,1.33
2018-09-13T00:15:35.855Z,1.33
2018-09-13T00:15:48.271Z,1.33
2018-09-13T00:16:00.679Z,1.33
2018-09-13T00:16:13.084Z,1.33
2018-09-13T00:16:25.483Z,1.33
2018-09-13T00:16:37.877Z,1.33
2018-09-13T00:16:50.290Z,1.33
2018-09-13T00:17:02.708Z,1.33
2018-09-13T00:17:15.134Z,1.33
2018-09-13T00:17:27.532Z,1.33
2018-09-13T00:17:39.943Z,1.33
2018-09-13T00:17:52.361Z,1.33
2018-09-13T00:18:04.759Z,1.33
2018-09-13T00:18:17.165Z,1.33
2018-09-13T00:18:29.577Z,1.33
2018-09-13T00:18:42.029Z,1.33
2018-09-13T00:18:54.476Z,1.33
2018-09-13T00:19:06.891Z,1.33
2018-09-13T00:19:19.305Z,1.33
2018-09-13T00:19:31.710Z,1.33
2018-09-13T00:19:44.102Z,1.33
2018-09-13T00:19:56.557Z,1.33
2018-09-13T00:20:09.021Z,1.33
2018-09-13T00:20:21.440Z,1.33
2018-09-13T00:20:33.887Z,1.33
2018-09-13T00:20:46.325Z,1.33
2018-09-13T00:20:58.768Z,1.33
2018-09-13T00:21:11.460Z,1.33
2018-09-13T00:21:23.865Z,1.67
2018-09-13T00:21:36.272Z,1.67
2018-09-13T00:21:48.722Z,1.67
2018-09-13T00:22:01.134Z,1.67
2018-09-13T00:22:13.530Z,1.67
2018-09-13T00:22:25.933Z,1.67
2018-09-13T00:22:38.341Z,1.67
2018-09-13T00:22:50.742Z,1.67
2018-09-13T00:23:03.149Z,1.67
2018-09-13T00:23:15.682Z,1.67
2018-09-13T00:23:28.096Z,1.67
2018-09-13T00:23:40.501Z,1.67
2018-09-13T00:23:52.946Z,1.67
2018-09-13T00:24:05.653Z,1.67
2018-09-13T00:24:18.070Z,1.67
2018-09-13T00:24:30.490Z,1.67
2018-09-13T00:24:42.916Z,1.67
2018-09-13T00:24:55.336Z,1.67
2018-09-13T00:25:07.754Z,1.67
2018-09-13T00:25:20.168Z,1.67
2018-09-13T00:25:32.579Z,1.67
2018-09-13T00:25:44.999Z,1.67
2018-09-13T00:25:57.398Z,1.67
2018-09-13T00:26:10.045Z,1.67
2018-09-13T00:26:22.456Z,1.67
2018-09-13T00:26:34.857Z,1.67
2018-09-13T00:26:47.275Z,1.67
2018-09-13T00:26:59.696Z,1.67
2018-09-13T00:27:12.089Z,1.67
2018-09-13T00:27:24.482Z,1.67
2018-09-13T00:27:36.920Z,1.67
2018-09-13T00:27:49.321Z,1.67
2018-09-13T00:28:01.716Z,1.67
2018-09-13T00:28:14.336Z,1.67
2018-09-13T00:28:26.761Z,1.67
2018-09-13T00:28:39.187Z,1.67
2018-09-13T00:28:51.582Z,1.67
2018-09-13T00:29:03.986Z,1.67
2018-09-13T00:29:16.389Z,1.67
2018-09-13T00:29:28.802Z,1.67
2018-09-13T00:29:41.207Z,1.67
2018-09-13T00:29:53.613Z,1.67
2018-09-13T00:30:06.026Z,1.67
2018-09-13T00:30:18.433Z,1.67
2018-09-13T00:30:30.857Z,1.67
2018-09-13T00:30:43.274Z,1.67
2018-09-13T00:30:55.721Z,1.67
2018-09-13T00:31:08.558Z,1.67
2018-09-13T00:31:20.983Z,1.86
2018-09-13T00:31:33.416Z,1.86
2018-09-13T00:31:45.823Z,1.86
2018-09-13T00:31:58.227Z,1.86
2018-09-13T00:32:10.615Z,1.86
2018-09-13T00:32:23.166Z,1.86
2018-09-13T00:32:35.554Z,1.86
2018-09-13T00:32:47.959Z,1.86
2018-09-13T00:33:00.398Z,1.86
2018-09-13T00:33:12.817Z,1.86
2018-09-13T00:33:25.222Z,1.86
2018-09-13T00:33:37.730Z,1.86
2018-09-13T00:33:50.126Z,1.86
2018-09-13T00:34:02.537Z,1.86
2018-09-13T00:34:14.927Z,1.86
2018-09-13T00:34:27.325Z,1.86
2018-09-13T00:34:39.745Z,1.86
2018-09-13T00:34:52.160Z,1.86
2018-09-13T00:35:04.563Z,1.86
2018-09-13T00:35:16.981Z,1.86
2018-09-13T00:35:29.364Z,1.86
2018-09-13T00:35:41.771Z,1.86
2018-09-13T00:35:54.198Z,1.86
2018-09-13T00:36:06.597Z,1.86
2018-09-13T00:36:19.046Z,1.86
2018-09-13T00:36:31.523Z,1.86
2018-09-13T00:36:43.983Z,1.86
2018-09-13T00:36:56.376Z,1.86
2018-09-13T00:37:08.797Z,1.86
2018-09-13T00:37:21.183Z,1.86
2018-09-13T00:37:33.635Z,1.86
2018-09-13T00:37:46.031Z,1.86
2018-09-13T00:37:58.497Z,1.86
2018-09-13T00:38:10.902Z,1.86
2018-09-13T00:38:23.370Z,1.86
2018-09-13T00:38:35.770Z,1.86
2018-09-13T00:38:48.254Z,1.86
2018-09-13T00:39:00.654Z,1.86
2018-09-13T00:39:13.053Z,1.86
2018-09-13T00:39:25.463Z,1.86
2018-09-13T00:39:37.911Z,1.86
2018-09-13T00:39:50.333Z,1.86
2018-09-13T00:40:02.727Z,1.86
2018-09-13T00:40:15.223Z,1.86
2018-09-13T00:40:27.652Z,1.86
2018-09-13T00:40:40.169Z,1.86
2018-09-13T00:40:52.568Z,1.86
2018-09-13T00:41:04.960Z,1.86
2018-09-13T00:41:17.362Z,1.86
2018-09-13T00:41:29.749Z,2.95
2018-09-13T00:41:42.146Z,2.95
2018-09-13T00:41:54.548Z,2.95
2018-09-13T00:42:06.940Z,2.95
2018-09-13T00:42:19.348Z,2.95
2018-09-13T00:42:31.761Z,2.95
2018-09-13T00:42:44.168Z,2.95
2018-09-13T00:42:56.578Z,2.95
2018-09-13T00:43:08.971Z,2.95
2018-09-13T00:43:21.366Z,2.95
2018-09-13T00:43:33.788Z,2.95
2018-09-13T00:43:46.186Z,2.95
2018-09-13T00:43:58.587Z,2.95
2018-09-13T00:44:10.977Z,2.95
2018-09-13T00:44:23.382Z,2.95
2018-09-13T00:44:35.795Z,2.95
2018-09-13T00:44:48.198Z,2.95
2018-09-13T00:45:00.608Z,2.95
2018-09-13T00:45:13.053Z,2.95
2018-09-13T00:45:25.460Z,2.95
2018-09-13T00:45:37.855Z,2.95
2018-09-13T00:45:50.231Z,2.95
2018-09-13T00:46:02.650Z,2.95
2018-09-13T00:46:15.048Z,2.95
2018-09-13T00:46:27.451Z,2.95
2018-09-13T00:46:39.852Z,2.95
2018-09-13T00:46:52.245Z,2.95
2018-09-13T00:47:04.649Z,2.95
2018-09-13T00:47:17.095Z,2.95
2018-09-13T00:47:29.513Z,2.95
2018-09-13T00:47:41.933Z,2.95
2018-09-13T00:47:54.323Z,2.95
2018-09-13T00:48:06.745Z,2.95
2018-09-13T00:48:19.137Z,2.95
2018-09-13T00:48:31.539Z,2.95
2018-09-13T00:48:43.957Z,2.95
2018-09-13T00:48:56.559Z,2.95
2018-09-13T00:49:08.983Z,2.95
2018-09-13T00:49:21.593Z,2.95
2018-09-13T00:49:33.984Z,2.95
2018-09-13T00:49:46.373Z,2.95
2018-09-13T00:49:58.772Z,2.95
2018-09-13T00:50:11.193Z,2.95
2018-09-13T00:50:23.578Z,2.95
2018-09-13T00:50:35.998Z,2.95
2018-09-13T00:50:48.408Z,2.95
2018-09-13T00:51:00.806Z,2.95
2018-09-13T00:51:13.218Z,2.95
2018-09-13T00:51:25.618Z,2.92
2018-09-13T00:51:37.999Z,2.92
2018-09-13T00:51:50.389Z,2.92
2018-09-13T00:52:02.770Z,2.92
2018-09-13T00:52:15.154Z,2.92
2018-09-13T00:52:27.554Z,2.92
2018-09-13T00:52:39.953Z,2.92
2018-09-13T00:52:52.353Z,2.92
2018-09-13T00:53:04.769Z,2.92
2018-09-13T00:53:17.363Z,2.92
2018-09-13T00:53:29.778Z,2.92
2018-09-13T00:53:42.179Z,2.92
2018-09-13T00:53:54.588Z,2.92
2018-09-13T00:54:06.983Z,2.92
2018-09-13T00:54:19.379Z,2.92
2018-09-13T00:54:31.813Z,2.92
2018-09-13T00:54:44.223Z,2.92
2018-09-13T00:54:56.642Z,2.92
2018-09-13T00:55:09.042Z,2.92
2018-09-13T00:55:21.435Z,2.92
2018-09-13T00:55:33.823Z,2.92
2018-09-13T00:55:46.225Z,2.92
2018-09-13T00:55:58.626Z,2.92
2018-09-13T00:56:11.035Z,2.92
2018-09-13T00:56:23.427Z,2.92
2018-09-13T00:56:35.817Z,2.92
2018-09-13T00:56:48.257Z,2.92
2018-09-13T00:57:00.665Z,2.92
2018-09-13T00:57:13.255Z,2.92
2018-09-13T00:57:25.647Z,2.92
2018-09-13T00:57:38.040Z,2.92
2018-09-13T00:57:50.460Z,2.92
2018-09-13T00:58:03.237Z,2.92
2018-09-13T00:58:15.645Z,2.92
2018-09-13T00:58:28.050Z,2.92
2018-09-13T00:58:40.801Z,2.92
2018-09-13T00:58:53.342Z,2.92
2018-09-13T00:59:07.174Z,2.92
2018-09-13T00:59:19.620Z,2.92
2018-09-13T00:59:32.018Z,2.92
2018-09-13T00:59:44.421Z,2.92
2018-09-13T00:59:56.824Z,2.92
2018-09-13T01:00:09.233Z,2.92
2018-09-13T01:00:21.657Z,2.92
2018-09-13T01:00:34.242Z,2.92
2018-09-13T01:00:46.680Z,2.92
2018-09-13T01:00:59.082Z,2.92
2018-09-13T01:01:11.503Z,2.92
2018-09-13T01:01:23.924Z,2.54
2018-09-13T01:01:36.344Z,2.54
2018-09-13T01:01:48.753Z,2.54
2018-09-13T01:02:01.159Z,2.54
2018-09-13T01:02:13.571Z,2.54
2018-09-13T01:02:25.987Z,2.54
2018-09-13T01:02:38.446Z,2.54
2018-09-13T01:02:50.836Z,2.54
2018-09-13T01:03:03.248Z,2.54
2018-09-13T01:03:15.834Z,2.54
2018-09-13T01:03:28.244Z,2.54
2018-09-13T01:03:40.652Z,2.54
2018-09-13T01:03:53.071Z,2.54
2018-09-13T01:04:05.483Z,2.54
2018-09-13T01:04:17.894Z,2.54
2018-09-13T01:04:30.308Z,2.54
2018-09-13T01:04:42.770Z,2.54
2018-09-13T01:04:55.271Z,2.54
2018-09-13T01:05:07.730Z,2.54
2018-09-13T01:05:20.141Z,2.54
2018-09-13T01:05:32.568Z,2.54
2018-09-13T01:05:45.017Z,2.54
2018-09-13T01:05:57.427Z,2.54
2018-09-13T01:06:09.862Z,2.54
2018-09-13T01:06:22.281Z,2.54
2018-09-13T01:06:34.832Z,2.54
2018-09-13T01:06:47.239Z,2.54
2018-09-13T01:06:59.645Z,2.54
2018-09-13T01:07:12.111Z,2.54
2018-09-13T01:07:24.511Z,2.54
2018-09-13T01:07:36.903Z,2.54
2018-09-13T01:07:49.294Z,2.54
2018-09-13T01:08:01.708Z,2.54
2018-09-13T01:08:14.139Z,2.54
2018-09-13T01:08:26.549Z,2.54
2018-09-13T01:08:38.953Z,2.54
2018-09-13T01:08:51.353Z,2.54
2018-09-13T01:09:03.757Z,2.54
2018-09-13T01:09:16.177Z,2.54
2018-09-13T01:09:28.609Z,2.54
2018-09-13T01:09:41.011Z,2.54
2018-09-13T01:09:53.400Z,2.54
2018-09-13T01:10:05.834Z,2.54
2018-09-13T01:10:18.296Z,2.54
2018-09-13T01:10:30.859Z,2.54
2018-09-13T01:10:43.264Z,2.54
2018-09-13T01:10:55.678Z,2.54
2018-09-13T01:11:08.064Z,2.54
2018-09-13T01:11:20.651Z,2.06
2018-09-13T01:11:33.217Z,2.06
2018-09-13T01:11:45.804Z,2.06
2018-09-13T01:11:58.224Z,2.06
2018-09-13T01:12:10.825Z,2.06
2018-09-13T01:12:23.271Z,2.06
2018-09-13T01:12:35.700Z,2.06
2018-09-13T01:12:48.113Z,2.06
2018-09-13T01:13:00.530Z,2.06
2018-09-13T01:13:12.959Z,2.06
2018-09-13T01:13:25.399Z,2.06
2018-09-13T01:13:37.792Z,2.06
2018-09-13T01:13:50.187Z,2.06
2018-09-13T01:14:02.581Z,2.06
2018-09-13T01:14:14.987Z,2.06
2018-09-13T01:14:27.393Z,2.06
2018-09-13T01:14:39.804Z,2.06
2018-09-13T01:14:52.208Z,2.06
2018-09-13T01:15:04.600Z,2.06
2018-09-13T01:15:17.007Z,2.06
2018-09-13T01:15:29.448Z,2.06
2018-09-13T01:15:41.902Z,2.06
2018-09-13T01:15:54.317Z,2.06
2018-09-13T01:16:06.731Z,2.06
2018-09-13T01:16:19.107Z,2.06
2018-09-13T01:16:31.527Z,2.06
2018-09-13T01:16:43.962Z,2.06
2018-09-13T01:16:56.354Z,2.06
2018-09-13T01:17:08.767Z,2.06
2018-09-13T01:17:21.155Z,2.06
2018-09-13T01:17:33.541Z,2.06
2018-09-13T01:17:45.938Z,2.06
2018-09-13T01:17:58.337Z,2.06
2018-09-13T01:18:10.860Z,2.06
2018-09-13T01:18:23.304Z,2.06
2018-09-13T01:18:35.717Z,2.06
2018-09-13T01:18:48.154Z,2.06
2018-09-13T01:19:00.565Z,2.06
2018-09-13T01:19:12.948Z,2.06
2018-09-13T01:19:25.343Z,2.06
2018-09-13T01:19:37.755Z,2.06
2018-09-13T01:19:50.147Z,2.06
2018-09-13T01:20:02.546Z,2.06
2018-09-13T01:20:14.938Z,2.06
2018-09-13T01:20:27.330Z,2.06
2018-09-13T01:20:39.712Z,2.06
2018-09-13T01:20:52.098Z,2.06
2018-09-13T01:21:04.637Z,2.06
2018-09-13T01:21:17.039Z,2.06
2018-09-13T01:21:29.455Z,1.73
2018-09-13T01:21:41.922Z,1.73
2018-09-13T01:21:54.327Z,1.73
2018-09-13T01:22:06.737Z,1.73
2018-09-13T01:22:19.149Z,1.73
2018-09-13T01:22:31.812Z,1.73
2018-09-13T01:22:44.213Z,1.73
2018-09-13T01:22:56.625Z,1.73
2018-09-13T01:23:09.014Z,1.73
2018-09-13T01:23:21.554Z,1.73
2018-09-13T01:23:33.942Z,1.73
2018-09-13T01:23:46.344Z,1.73
2018-09-13T01:23:58.936Z,1.73
2018-09-13T01:24:11.355Z,1.73
2018-09-13T01:24:23.759Z,1.73
2018-09-13T01:24:36.294Z,1.73
2018-09-13T01:24:48.695Z,1.73
2018-09-13T01:25:01.111Z,1.73
2018-09-13T01:25:13.499Z,1.73
2018-09-13T01:25:25.917Z,1.73
2018-09-13T01:25:38.310Z,1.73
2018-09-13T01:25:50.703Z,1.73
2018-09-13T01:26:03.085Z,1.73
2018-09-13T01:26:15.472Z,1.73
2018-09-13T01:26:27.892Z,1.73
2018-09-13T01:26:40.289Z,1.73
2018-09-13T01:26:52.930Z,1.73
2018-09-13T01:27:05.339Z,1.73
2018-09-13T01:27:17.768Z,1.73
2018-09-13T01:27:30.183Z,1.73
2018-09-13T01:27:42.619Z,1.73
2018-09-13T01:27:55.019Z,1.73
2018-09-13T01:28:07.419Z,1.73
2018-09-13T01:28:19.835Z,1.73
2018-09-13T01:28:32.238Z,1.73
2018-09-13T01:28:44.647Z,1.73
2018-09-13T01:28:57.064Z,1.73
2018-09-13T01:29:09.485Z,1.73
2018-09-13T01:29:21.887Z,1.73
2018-09-13T01:29:34.284Z,1.73
2018-09-13T01:29:46.680Z,1.73
2018-09-13T01:29:59.107Z,1.73
2018-09-13T01:30:11.520Z,1.73
2018-09-13T01:30:23.919Z,1.73
2018-09-13T01:30:36.317Z,1.73
2018-09-13T01:30:48.846Z,1.73
2018-09-13T01:31:01.312Z,1.73
2018-09-13T01:31:13.735Z,1.73
2018-09-13T01:31:26.151Z,2.83
2018-09-13T01:31:38.547Z,2.83
2018-09-13T01:31:50.938Z,2.83
2018-09-13T01:32:03.361Z,2.83
2018-09-13T01:32:15.761Z,2.83
2018-09-13T01:32:28.173Z,2.83
2018-09-13T01:32:40.598Z,2.83
2018-09-13T01:32:53.013Z,2.83
2018-09-13T01:33:05.447Z,2.83
2018-09-13T01:33:17.867Z,2.83
2018-09-13T01:33:30.259Z,2.83
2018-09-13T01:33:42.763Z,2.83
2018-09-13T01:33:55.171Z,2.83
2018-09-13T01:34:07.604Z,2.83
2018-09-13T01:34:20.006Z,2.83
2018-09-13T01:34:32.436Z,2.83
2018-09-13T01:34:44.853Z,2.83
2018-09-13T01:34:57.256Z,2.83
2018-09-13T01:35:09.657Z,2.83
2018-09-13T01:35:22.062Z,2.83
2018-09-13T01:35:34.590Z,2.83
2018-09-13T01:35:46.973Z,2.83
2018-09-13T01:35:59.362Z,2.83
2018-09-13T01:36:11.765Z,2.83
2018-09-13T01:36:24.150Z,2.83
2018-09-13T01:36:36.551Z,2.83
2018-09-13T01:36:48.963Z,2.83
2018-09-13T01:37:01.350Z,2.83
2018-09-13T01:37:13.746Z,2.83
2018-09-13T01:37:26.141Z,2.83
2018-09-13T01:37:38.551Z,2.83
2018-09-13T01:37:50.977Z,2.83
2018-09-13T01:38:03.401Z,2.83
2018-09-13T01:38:15.815Z,2.83
2018-09-13T01:38:28.242Z,2.83
2018-09-13T01:38:40.643Z,2.83
2018-09-13T01:38:53.027Z,2.83
2018-09-13T01:39:05.467Z,2.83
2018-09-13T01:39:17.908Z,2.83
2018-09-13T01:39:30.639Z,2.83
2018-09-13T01:39:43.039Z,2.83
2018-09-13T01:39:55.455Z,2.83
2018-09-13T01:40:07.885Z,2.83
2018-09-13T01:40:20.619Z,2.83
2018-09-13T01:40:33.046Z,2.83
2018-09-13T01:40:45.436Z,2.83
2018-09-13T01:40:57.852Z,2.83
2018-09-13T01:41:10.256Z,2.83
2018-09-13T01:41:22.658Z,1.9
2018-09-13T01:41:35.054Z,1.9
2018-09-13T01:41:47.457Z,1.9
2018-09-13T01:41:59.854Z,1.9
2018-09-13T01:42:12.264Z,1.9
2018-09-13T01:42:24.668Z,1.9
2018-09-13T01:42:37.075Z,1.9
2018-09-13T01:42:49.472Z,1.9
2018-09-13T01:43:01.892Z,1.9
2018-09-13T01:43:14.292Z,1.9
2018-09-13T01:43:26.742Z,1.9
2018-09-13T01:43:39.139Z,1.9
2018-09-13T01:43:51.535Z,1.9
2018-09-13T01:44:03.924Z,1.9
2018-09-13T01:44:16.336Z,1.9
2018-09-13T01:44:28.828Z,1.9
2018-09-13T01:44:41.229Z,1.9
2018-09-13T01:44:53.614Z,1.9
2018-09-13T01:45:06.026Z,1.9
2018-09-13T01:45:18.424Z,1.9
2018-09-13T01:45:30.807Z,1.9
2018-09-13T01:45:43.203Z,1.9
2018-09-13T01:45:55.590Z,1.9
2018-09-13T01:46:07.987Z,1.9
2018-09-13T01:46:20.382Z,1.9
2018-09-13T01:46:32.788Z,1.9
2018-09-13T01:46:45.186Z,1.9
2018-09-13T01:46:57.606Z,1.9
2018-09-13T01:47:10.000Z,1.9
2018-09-13T01:47:22.418Z,1.9
2018-09-13T01:47:34.812Z,1.9
2018-09-13T01:47:47.236Z,1.9
2018-09-13T01:47:59.633Z,1.9
2018-09-13T01:48:12.016Z,1.9
2018-09-13T01:48:24.412Z,1.9
2018-09-13T01:48:36.825Z,1.9
2018-09-13T01:48:49.361Z,1.9
2018-09-13T01:49:01.764Z,1.9
2018-09-13T01:49:14.301Z,1.9
2018-09-13T01:49:26.688Z,1.9
2018-09-13T01:49:39.075Z,1.9
2018-09-13T01:49:51.486Z,1.9
2018-09-13T01:50:03.925Z,1.9
2018-09-13T01:50:16.315Z,1.9
2018-09-13T01:50:28.763Z,1.9
2018-09-13T01:50:41.172Z,1.9
2018-09-13T01:50:53.567Z,1.9
2018-09-13T01:51:05.953Z,1.9
2018-09-13T01:51:18.345Z,1.9
2018-09-13T01:51:30.745Z,2.15
2018-09-13T01:51:43.130Z,2.15
2018-09-13T01:51:55.545Z,2.15
2018-09-13T01:52:07.949Z,2.15
2018-09-13T01:52:20.335Z,2.15
2018-09-13T01:52:32.748Z,2.15
2018-09-13T01:52:45.134Z,2.15
2018-09-13T01:52:57.536Z,2.15
2018-09-13T01:53:09.935Z,2.15
2018-09-13T01:53:22.638Z,2.15
2018-09-13T01:53:35.213Z,2.15
2018-09-13T01:53:47.607Z,2.15
2018-09-13T01:53:59.999Z,2.15
2018-09-13T01:54:12.398Z,2.15
2018-09-13T01:54:24.789Z,2.15
2018-09-13T01:54:37.193Z,2.15
2018-09-13T01:54:49.581Z,2.15
2018-09-13T01:55:01.984Z,2.15
2018-09-13T01:55:14.386Z,2.15
2018-09-13T01:55:26.785Z,2.15
2018-09-13T01:55:39.209Z,2.15
2018-09-13T01:55:51.590Z,2.15
2018-09-13T01:56:03.969Z,2.15
2018-09-13T01:56:16.370Z,2.15
2018-09-13T01:56:28.782Z,2.15
2018-09-13T01:56:41.209Z,2.15
2018-09-13T01:56:53.630Z,2.15
2018-09-13T01:57:06.090Z,2.15
2018-09-13T01:57:18.485Z,2.15
2018-09-13T01:57:30.881Z,2.15
2018-09-13T01:57:43.292Z,2.15
2018-09-13T01:57:55.703Z,2.15
2018-09-13T01:58:08.118Z,2.15
2018-09-13T01:58:20.627Z,2.15
2018-09-13T01:58:33.027Z,2.15
2018-09-13T01:58:45.717Z,2.15
2018-09-13T01:58:58.105Z,2.15
2018-09-13T01:59:10.493Z,2.15
2018-09-13T01:59:22.893Z,2.15
2018-09-13T01:59:35.282Z,2.15
2018-09-13T01:59:47.686Z,2.15
2018-09-13T02:00:00.086Z,2.15
2018-09-13T02:00:12.513Z,2.15
2018-09-13T02:00:24.937Z,2.15
2018-09-13T02:00:37.371Z,2.15
2018-09-13T02:00:49.788Z,2.15
2018-09-13T02:01:02.275Z,2.15
2018-09-13T02:01:14.710Z,2.15
2018-09-13T02:01:27.279Z,2.38
2018-09-13T02:01:39.669Z,2.38
2018-09-13T02:01:52.084Z,2.38
2018-09-13T02:02:04.483Z,2.38
2018-09-13T02:02:16.898Z,2.38
2018-09-13T02:02:29.325Z,2.38
2018-09-13T02:02:41.732Z,2.38
2018-09-13T02:02:54.138Z,2.38
2018-09-13T02:03:06.540Z,2.38
2018-09-13T02:03:19.078Z,2.38
2018-09-13T02:03:31.483Z,2.38
2018-09-13T02:03:43.915Z,2.38
2018-09-13T02:03:56.381Z,2.38
2018-09-13T02:04:08.853Z,2.38
2018-09-13T02:04:21.242Z,2.38
2018-09-13T02:04:33.657Z,2.38
2018-09-13T02:04:46.096Z,2.38
2018-09-13T02:04:58.675Z,2.38
2018-09-13T02:05:11.090Z,2.38
2018-09-13T02:05:23.494Z,2.38
2018-09-13T02:05:35.872Z,2.38
2018-09-13T02:05:48.276Z,2.38
2018-09-13T02:06:00.694Z,2.38
2018-09-13T02:06:13.091Z,2.38
2018-09-13T02:06:25.482Z,2.38
2018-09-13T02:06:38.081Z,2.38
2018-09-13T02:06:50.494Z,2.38
2018-09-13T02:07:02.895Z,2.38
2018-09-13T02:07:15.288Z,2.38
2018-09-13T02:07:27.698Z,2.38
2018-09-13T02:07:40.162Z,2.38
2018-09-13T02:07:52.570Z,2.38
2018-09-13T02:08:04.986Z,2.38
2018-09-13T02:08:17.410Z,2.38
2018-09-13T02:08:29.818Z,2.38
2018-09-13T02:08:42.227Z,2.38
2018-09-13T02:08:54.623Z,2.38
2018-09-13T02:09:07.002Z,2.38
2018-09-13T02:09:19.400Z,2.38
2018-09-13T02:09:31.826Z,2.38
2018-09-13T02:09:44.233Z,2.38
2018-09-13T02:09:56.627Z,2.38
2018-09-13T02:10:09.024Z,2.38
2018-09-13T02:10:21.540Z,2.38
2018-09-13T02:10:33.988Z,2.38
2018-09-13T02:10:46.424Z,2.38
2018-09-13T02:10:58.827Z,2.38
2018-09-13T02:11:11.228Z,2.38
2018-09-13T02:11:23.998Z,2.38
2018-09-13T02:11:36.388Z,3.15
2018-09-13T02:11:48.884Z,3.15
2018-09-13T02:12:01.295Z,3.15
2018-09-13T02:12:13.786Z,3.15
2018-09-13T02:12:26.178Z,3.15
2018-09-13T02:12:38.596Z,3.15
2018-09-13T02:12:51.004Z,3.15
2018-09-13T02:13:03.401Z,3.15
2018-09-13T02:13:15.802Z,3.15
2018-09-13T02:13:28.243Z,3.15
2018-09-13T02:13:40.654Z,3.15
2018-09-13T02:13:53.049Z,3.15
2018-09-13T02:14:05.504Z,3.15
2018-09-13T02:14:17.899Z,3.15
2018-09-13T02:14:30.332Z,3.15
2018-09-13T02:14:42.759Z,3.15
2018-09-13T02:14:56.196Z,3.15
2018-09-13T02:15:08.598Z,3.15
2018-09-13T02:15:21.004Z,3.15
2018-09-13T02:15:33.388Z,3.15
2018-09-13T02:15:45.794Z,3.15
2018-09-13T02:15:58.201Z,3.15
2018-09-13T02:16:10.628Z,3.15
2018-09-13T02:16:23.052Z,3.15
2018-09-13T02:16:35.950Z,3.15
2018-09-13T02:16:48.367Z,3.15
2018-09-13T02:17:00.783Z,3.15
2018-09-13T02:17:13.205Z,3.15
2018-09-13T02:17:25.623Z,3.15
2018-09-13T02:17:38.063Z,3.15
2018-09-13T02:17:50.522Z,3.15
2018-09-13T02:18:02.982Z,3.15
2018-09-13T02:18:15.385Z,3.15
2018-09-13T02:18:27.778Z,3.15
2018-09-13T02:18:40.164Z,3.15
2018-09-13T02:18:52.570Z,3.15
2018-09-13T02:19:04.985Z,3.15
2018-09-13T02:19:17.387Z,3.15
2018-09-13T02:19:29.801Z,3.15
2018-09-13T02:19:42.197Z,3.15
2018-09-13T02:19:54.639Z,3.15
2018-09-13T02:20:07.060Z,3.15
2018-09-13T02:20:19.459Z,3.15
2018-09-13T02:20:31.861Z,3.15
2018-09-13T02:20:44.254Z,3.15
2018-09-13T02:20:56.653Z,3.15
2018-09-13T02:21:09.151Z,3.15
2018-09-13T02:21:21.551Z,3.15
2018-09-13T02:21:33.953Z,4.42
2018-09-13T02:21:46.752Z,4.42
2018-09-13T02:21:59.162Z,4.42
2018-09-13T02:22:11.569Z,4.42
2018-09-13T02:22:23.984Z,4.42
2018-09-13T02:22:36.386Z,4.42
2018-09-13T02:22:48.881Z,4.42
2018-09-13T02:23:01.294Z,4.42
2018-09-13T02:23:13.798Z,4.42
2018-09-13T02:23:26.194Z,4.42
2018-09-13T02:23:38.618Z,4.42
2018-09-13T02:23:51.099Z,4.42
2018-09-13T02:24:03.643Z,4.42
2018-09-13T02:24:16.045Z,4.42
2018-09-13T02:24:28.433Z,4.42
2018-09-13T02:24:40.833Z,4.42
2018-09-13T02:24:53.233Z,4.42
2018-09-13T02:25:05.658Z,4.42
2018-09-13T02:25:18.323Z,4.42
2018-09-13T02:25:30.736Z,4.42
2018-09-13T02:25:43.129Z,4.42
2018-09-13T02:25:55.658Z,4.42
2018-09-13T02:26:08.062Z,4.42
2018-09-13T02:26:20.441Z,4.42
2018-09-13T02:26:32.865Z,4.42
2018-09-13T02:26:45.273Z,4.42
2018-09-13T02:26:57.673Z,4.42
2018-09-13T02:27:10.067Z,4.42
2018-09-13T02:27:22.483Z,4.42
2018-09-13T02:27:34.887Z,4.42
2018-09-13T02:27:47.327Z,4.42
2018-09-13T02:27:59.752Z,4.42
2018-09-13T02:28:12.171Z,4.42
2018-09-13T02:28:24.574Z,4.42
2018-09-13T02:28:36.952Z,4.42
2018-09-13T02:28:49.364Z,4.42
2018-09-13T02:29:01.783Z,4.42
2018-09-13T02:29:14.198Z,4.42
2018-09-13T02:29:26.620Z,4.42
2018-09-13T02:29:39.122Z,4.42
2018-09-13T02:29:51.524Z,4.42
2018-09-13T02:30:03.998Z,4.42
2018-09-13T02:30:16.425Z,4.42
2018-09-13T02:30:28.867Z,4.42
2018-09-13T02:30:41.456Z,4.42
2018-09-13T02:30:53.854Z,4.42
2018-09-13T02:31:06.266Z,4.42
2018-09-13T02:31:18.684Z,4.42
2018-09-13T02:31:31.108Z,2.43
2018-09-13T02:31:43.551Z,2.43
2018-09-13T02:31:56.039Z,2.43
2018-09-13T02:32:08.607Z,2.43
2018-09-13T02:32:21.029Z,2.43
2018-09-13T02:32:33.467Z,2.43
2018-09-13T02:32:45.893Z,2.43
2018-09-13T02:32:58.301Z,2.43
2018-09-13T02:33:10.722Z,2.43
2018-09-13T02:33:23.139Z,2.43
2018-09-13T02:33:35.851Z,2.43
2018-09-13T02:33:48.263Z,2.43
2018-09-13T02:34:00.683Z,2.43
2018-09-13T02:34:13.099Z,2.43
2018-09-13T02:34:25.503Z,2.43
2018-09-13T02:34:37.910Z,2.43
2018-09-13T02:34:50.317Z,2.43
2018-09-13T02:35:02.712Z,2.43
2018-09-13T02:35:15.105Z,2.43
2018-09-13T02:35:27.510Z,2.43
2018-09-13T02:35:39.946Z,2.43
2018-09-13T02:35:52.356Z,2.43
2018-09-13T02:36:04.754Z,2.43
2018-09-13T02:36:17.183Z,2.43
2018-09-13T02:36:29.585Z,2.43
2018-09-13T02:36:42.028Z,2.43
2018-09-13T02:36:54.495Z,2.43
2018-09-13T02:37:06.915Z,2.43
2018-09-13T02:37:19.349Z,2.43
2018-09-13T02:37:31.775Z,2.43
2018-09-13T02:37:44.187Z,2.43
2018-09-13T02:37:56.569Z,2.43
2018-09-13T02:38:09.016Z,2.43
2018-09-13T02:38:21.427Z,2.43
2018-09-13T02:38:33.843Z,2.43
2018-09-13T02:38:46.309Z,2.43
2018-09-13T02:38:58.721Z,2.43
2018-09-13T02:39:11.129Z,2.43
2018-09-13T02:39:23.533Z,2.43
2018-09-13T02:39:35.954Z,2.43
2018-09-13T02:39:48.342Z,2.43
2018-09-13T02:40:00.765Z,2.43
2018-09-13T02:40:13.318Z,2.43
2018-09-13T02:40:25.730Z,2.43
2018-09-13T02:40:38.140Z,2.43
2018-09-13T02:40:50.556Z,2.43
2018-09-13T02:41:02.957Z,2.43
2018-09-13T02:41:15.363Z,2.43
2018-09-13T02:41:27.785Z,3.1
2018-09-13T02:41:40.213Z,3.1
2018-09-13T02:41:52.624Z,3.1
2018-09-13T02:42:05.076Z,3.1
2018-09-13T02:42:17.532Z,3.1
2018-09-13T02:42:30.012Z,3.1
2018-09-13T02:42:42.458Z,3.1
2018-09-13T02:42:54.841Z,3.1
2018-09-13T02:43:07.258Z,3.1
2018-09-13T02:43:19.712Z,3.1
2018-09-13T02:43:32.169Z,3.1
2018-09-13T02:43:44.724Z,3.1
2018-09-13T02:43:57.163Z,3.1
2018-09-13T02:44:09.825Z,3.1
2018-09-13T02:44:22.271Z,3.1
2018-09-13T02:44:34.698Z,3.1
2018-09-13T02:44:47.095Z,3.1
2018-09-13T02:44:59.513Z,3.1
2018-09-13T02:45:11.976Z,3.1
2018-09-13T02:45:24.379Z,3.1
2018-09-13T02:45:36.774Z,3.1
2018-09-13T02:45:49.196Z,3.1